createdAt,value
2023-02-12T19:27:28.090Z,79.16
2023-02-12T19:29:57.798Z,79.62
2023-02-12T19:32:26.685Z,80.05
2023-02-12T19:34:55.785Z,80.54
2023-02-12T19:37:24.785Z,80.00
2023-02-12T19:39:53.779Z,79.22
2023-02-12T19:42:22.798Z,78.90
2023-02-12T19:44:51.655Z,78.88
2023-02-12T19:47:21.087Z,79.07
2023-02-12T19:49:49.923Z,78.69
2023-02-12T19:52:18.852Z,79.19
2023-02-12T19:54:48.145Z,79.23
2023-02-12T19:57:17.019Z,78.84
2023-02-12T19:59:46.688Z,78.73
2023-02-12T20:02:15.482Z,78.57
2023-02-12T20:04:44.214Z,78.57
2023-02-12T20:07:13.205Z,78.58
2023-02-12T20:09:42.007Z,78.05
2023-02-12T20:12:10.863Z,78.37
2023-02-12T20:14:39.652Z,78.65
2023-02-12T20:17:08.440Z,78.67
2023-02-12T20:19:37.335Z,78.02
2023-02-12T20:22:06.178Z,77.89
2023-02-12T20:24:35.347Z,77.47
2023-02-12T20:27:04.762Z,77.77
2023-02-12T20:29:33.595Z,77.84
2023-02-12T20:32:02.505Z,77.76
2023-02-12T20:34:36.677Z,77.25
2023-02-12T20:37:11.753Z,76.61
2023-02-12T20:39:40.482Z,76.49
2023-02-12T20:42:09.251Z,76.42
2023-02-12T20:44:38.483Z,76.53
2023-02-12T20:47:07.237Z,76.67
2023-02-12T20:49:36.158Z,76.48
2023-02-12T20:52:05.358Z,76.52
2023-02-12T20:54:34.121Z,76.53
2023-02-12T20:57:06.850Z,76.77
2023-02-12T20:59:35.863Z,76.96
2023-02-12T21:02:04.933Z,77.36
2023-02-12T21:04:34.373Z,77.12
2023-02-12T21:07:03.271Z,77.17
2023-02-12T21:09:32.144Z,77.24
2023-02-12T21:12:00.851Z,77.34
2023-02-12T21:14:29.682Z,77.22
2023-02-12T21:16:58.433Z,77.16
2023-02-12T21:19:27.559Z,77.64
2023-02-12T21:21:56.330Z,77.73
2023-02-12T21:24:26.273Z,77.80
2023-02-12T21:26:55.907Z,77.42
2023-02-12T21:29:27.727Z,77.28
2023-02-12T21:31:56.645Z,76.95
2023-02-12T21:34:25.591Z,76.96
2023-02-12T21:36:56.384Z,76.91
2023-02-12T21:39:28.637Z,76.96
2023-02-12T21:42:02.618Z,76.92
2023-02-12T21:44:35.554Z,76.89
2023-02-12T21:47:05.510Z,77.02
2023-02-12T21:49:34.426Z,77.25
2023-02-12T21:52:06.882Z,77.36
2023-02-12T21:54:35.767Z,77.65
2023-02-12T21:57:04.528Z,78.37
2023-02-12T21:59:33.347Z,78.96
2023-02-12T22:02:02.257Z,79.79
2023-02-12T22:04:31.036Z,81.24
2023-02-12T22:07:03.468Z,81.50
2023-02-12T22:09:32.536Z,80.17
2023-02-12T22:12:01.265Z,80.90
2023-02-12T22:14:30.217Z,81.52
2023-02-12T22:16:59.560Z,81.76
2023-02-12T22:19:28.327Z,81.20
2023-02-12T22:21:57.052Z,81.25
2023-02-12T22:24:25.776Z,81.85
2023-02-12T22:26:55.378Z,81.71
2023-02-12T22:29:24.280Z,81.34
2023-02-12T22:31:53.093Z,81.06
2023-02-12T22:34:21.869Z,81.34
2023-02-12T22:36:50.637Z,81.57
2023-02-12T22:39:19.444Z,81.88
2023-02-12T22:41:48.324Z,82.00
2023-02-12T22:44:18.926Z,81.39
2023-02-12T22:46:50.517Z,81.58
2023-02-12T22:49:19.504Z,81.70
2023-02-12T22:51:48.300Z,82.39
2023-02-12T22:54:19.175Z,82.72
2023-02-12T22:56:52.236Z,82.56
2023-02-12T22:59:21.017Z,82.88
2023-02-12T23:01:49.838Z,83.33
2023-02-12T23:04:19.420Z,84.01
2023-02-12T23:06:48.533Z,84.66
2023-02-12T23:09:19.325Z,85.36
2023-02-12T23:11:48.889Z,85.13
2023-02-12T23:14:18.334Z,85.14
2023-02-12T23:16:47.700Z,86.87
2023-02-12T23:19:16.727Z,85.07
2023-02-12T23:21:45.502Z,85.65
2023-02-12T23:24:15.257Z,84.95
2023-02-12T23:26:44.998Z,85.70
2023-02-12T23:29:14.358Z,86.15
2023-02-12T23:31:43.288Z,87.89
2023-02-12T23:34:12.131Z,88.03
2023-02-12T23:36:40.907Z,88.14
2023-02-12T23:39:12.771Z,86.04
2023-02-12T23:41:41.482Z,87.66
2023-02-12T23:44:10.752Z,87.52
2023-02-12T23:46:39.516Z,87.30
2023-02-12T23:49:08.557Z,87.40
2023-02-12T23:51:37.320Z,87.50
2023-02-12T23:54:06.182Z,87.83
2023-02-12T23:56:34.868Z,89.68
2023-02-12T23:59:03.660Z,90.20
